CheckWX is a tool to help pilots better visualize weather data.  It is not intended as a substitute for an official pre-flight weather briefing.

23:05:43 UTC

LTFE METAR
Milas Bodrum International Airport
Bodrum, Turkey
Current

46 mins ago

LTFE 012220Z 13003KT 9999 FEW035 BKN200 10/09 Q1012 NOSIG RMK RWY10 11003KT
Observed
Apr-1 @ 22:20 UTC
Wind
  • 130° at 3 KTS
Visibility
10,000+ meters
Flight Rules
VFR
Cloud Levels
  • Few at 3,500' AGL
  • Broken at 20,000' AGL
Temperature
10°C / 50°F
Dewpoint
C / 48°F
Humidity
94%
Altimeter
29.88" Hg
Pressure
1011.92 hPa
Previous

1 hour ago

LTFE 012150Z 13003KT 090V170 9999 FEW035 BKN200 09/08 Q1012 NOSIG RMK RWY10 11003KT
Observed
Apr-1 @ 21:50 UTC
Wind
  • 130° at 3 KTS
Visibility
10,000+ meters
Flight Rules
VFR
Cloud Levels
  • Few at 3,500' AGL
  • Broken at 20,000' AGL
Temperature
C / 48°F
Dewpoint
C / 46°F
Humidity
94%
Altimeter
29.88" Hg
Pressure
1011.92 hPa
Previous

2 hours ago

LTFE 012120Z 11004KT 9999 FEW035 BKN200 09/08 Q1012 NOSIG RMK RWY10 14005KT
Observed
Apr-1 @ 21:20 UTC
Wind
  • 110° at 4 KTS
Visibility
10,000+ meters
Flight Rules
VFR
Cloud Levels
  • Few at 3,500' AGL
  • Broken at 20,000' AGL
Temperature
C / 48°F
Dewpoint
C / 46°F
Humidity
94%
Altimeter
29.88" Hg
Pressure
1011.92 hPa